createdAt,value
2022-10-23T00:01:01.267Z,71.83
2022-10-23T00:03:27.754Z,71.84
2022-10-23T00:05:54.244Z,71.65
2022-10-23T00:08:20.668Z,72.03
2022-10-23T00:10:47.164Z,71.57
2022-10-23T00:13:13.584Z,71.58
2022-10-23T00:15:40.084Z,72.05
2022-10-23T00:18:06.633Z,71.76
2022-10-23T00:20:33.076Z,71.90
2022-10-23T00:22:59.497Z,72.02
2022-10-23T00:25:25.917Z,71.80
2022-10-23T00:27:52.338Z,72.43
2022-10-23T00:30:18.816Z,71.73
2022-10-23T00:32:45.231Z,71.35
2022-10-23T00:35:11.665Z,71.35
2022-10-23T00:37:38.072Z,70.96
2022-10-23T00:40:05.251Z,71.26
2022-10-23T00:42:31.815Z,72.03
2022-10-23T00:45:18.869Z,71.44
2022-10-23T00:47:45.666Z,71.51
2022-10-23T00:50:12.393Z,70.90
2022-10-23T00:52:45.098Z,70.48
2022-10-23T00:55:12.256Z,70.29
2022-10-23T00:57:41.688Z,70.46
2022-10-23T01:00:09.020Z,70.23
2022-10-23T01:02:35.518Z,70.32
2022-10-23T01:05:02.040Z,69.95
2022-10-23T01:07:50.266Z,70.42
2022-10-23T01:10:36.209Z,70.11
2022-10-23T01:13:06.438Z,70.48
2022-10-23T01:15:47.811Z,69.88
2022-10-23T01:18:25.423Z,70.23
2022-10-23T01:21:07.960Z,70.68
2022-10-23T01:24:13.073Z,70.22
2022-10-23T01:26:57.379Z,70.85
2022-10-23T01:29:40.838Z,70.83
2022-10-23T01:32:14.931Z,70.80
2022-10-23T01:34:51.800Z,70.54
2022-10-23T01:37:29.881Z,70.66
2022-10-23T01:40:02.515Z,70.68
2022-10-23T01:42:35.282Z,70.81
2022-10-23T01:45:14.753Z,71.02
2022-10-23T01:47:43.291Z,70.78
2022-10-23T01:50:12.562Z,70.71
2022-10-23T01:52:39.210Z,70.51
2022-10-23T01:55:10.258Z,69.91
2022-10-23T01:57:39.889Z,70.26
2022-10-23T02:00:11.267Z,70.11
2022-10-23T02:02:41.646Z,69.96
2022-10-23T02:05:29.494Z,69.43
2022-10-23T02:07:57.016Z,69.56
2022-10-23T02:10:49.292Z,69.71
2022-10-23T02:13:23.266Z,70.55
2022-10-23T02:15:58.919Z,70.25
2022-10-23T02:19:09.090Z,70.25
2022-10-23T02:21:50.409Z,69.87
2022-10-23T02:24:24.891Z,69.54
2022-10-23T02:26:52.812Z,70.01
2022-10-23T02:29:34.637Z,70.07
2022-10-23T02:32:01.269Z,69.74
2022-10-23T02:34:27.790Z,69.65
2022-10-23T02:36:54.213Z,69.91
2022-10-23T02:39:24.321Z,70.08
2022-10-23T02:42:20.381Z,69.88
2022-10-23T02:44:54.593Z,70.01
2022-10-23T02:47:46.787Z,70.04
2022-10-23T02:50:31.452Z,69.84
2022-10-23T02:53:28.370Z,70.17
2022-10-23T02:56:28.937Z,70.31
2022-10-23T02:59:06.696Z,69.66
2022-10-23T03:01:59.219Z,69.79
2022-10-23T03:04:28.067Z,70.02
2022-10-23T03:06:55.395Z,70.35
2022-10-23T03:09:21.901Z,70.04
2022-10-23T03:11:48.292Z,69.55
2022-10-23T03:14:14.739Z,69.55
2022-10-23T03:16:41.124Z,69.58
2022-10-23T03:19:07.596Z,69.73
2022-10-23T03:21:34.067Z,70.00
2022-10-23T03:24:00.627Z,70.23
2022-10-23T03:26:27.066Z,70.10
2022-10-23T03:28:53.484Z,70.32
2022-10-23T03:31:20.154Z,70.55
2022-10-23T03:33:46.548Z,70.43
2022-10-23T03:36:12.940Z,70.05
2022-10-23T03:38:39.500Z,70.82
2022-10-23T03:41:06.019Z,71.49
2022-10-23T03:43:32.415Z,71.25
2022-10-23T03:45:59.111Z,71.22
2022-10-23T03:48:25.664Z,70.99
2022-10-23T03:50:52.120Z,71.51
2022-10-23T03:53:18.806Z,71.08
2022-10-23T03:55:45.280Z,71.00
2022-10-23T03:58:11.876Z,70.79
2022-10-23T04:00:38.343Z,70.27
2022-10-23T04:03:05.068Z,70.06
2022-10-23T04:05:31.459Z,70.17
2022-10-23T04:07:57.971Z,70.27
2022-10-23T04:10:24.412Z,70.27
2022-10-23T04:12:50.883Z,70.38
2022-10-23T04:15:17.604Z,70.59
2022-10-23T04:17:43.988Z,70.55
2022-10-23T04:20:10.543Z,70.23
2022-10-23T04:22:37.098Z,70.25
2022-10-23T04:25:03.789Z,70.32
2022-10-23T04:27:30.198Z,70.33
2022-10-23T04:29:59.005Z,70.17
2022-10-23T04:32:26.470Z,70.15
2022-10-23T04:34:52.942Z,70.25
2022-10-23T04:37:19.658Z,70.37
2022-10-23T04:39:46.075Z,70.63
2022-10-23T04:42:12.523Z,70.89
2022-10-23T04:44:39.240Z,70.57
2022-10-23T04:47:05.673Z,70.90
2022-10-23T04:49:32.080Z,71.02
2022-10-23T04:51:58.483Z,70.94
2022-10-23T04:54:24.920Z,71.29
2022-10-23T04:56:51.350Z,71.00
2022-10-23T04:59:17.831Z,70.96
2022-10-23T05:01:44.406Z,70.99
2022-10-23T05:04:10.897Z,71.66
2022-10-23T05:06:37.320Z,72.95
2022-10-23T05:09:03.886Z,72.51
2022-10-23T05:11:30.258Z,72.17
2022-10-23T05:13:56.671Z,72.44
2022-10-23T05:16:32.003Z,72.44
2022-10-23T05:18:59.925Z,72.51
2022-10-23T05:21:30.039Z,72.75
2022-10-23T05:23:57.476Z,72.39
2022-10-23T05:26:23.978Z,72.20
2022-10-23T05:28:50.370Z,71.79
2022-10-23T05:31:19.146Z,71.65
2022-10-23T05:33:45.653Z,71.91
2022-10-23T05:36:13.853Z,72.72
2022-10-23T05:38:40.787Z,73.20
2022-10-23T05:41:07.376Z,72.79
2022-10-23T05:43:33.827Z,73.03
2022-10-23T05:46:04.921Z,72.49
2022-10-23T05:48:34.702Z,73.47
2022-10-23T05:51:09.647Z,72.38
2022-10-23T05:53:38.773Z,72.04
2022-10-23T05:56:09.230Z,71.86
2022-10-23T05:58:36.020Z,71.87
2022-10-23T06:01:07.725Z,71.85
2022-10-23T06:03:34.540Z,71.76
2022-10-23T06:06:00.971Z,72.76
2022-10-23T06:08:27.458Z,72.30
2022-10-23T06:10:54.093Z,71.90
2022-10-23T06:13:20.638Z,72.30
2022-10-23T06:15:47.092Z,72.17
2022-10-23T06:18:13.521Z,71.84
2022-10-23T06:20:41.163Z,71.87
2022-10-23T06:23:07.916Z,71.43
2022-10-23T06:25:34.336Z,71.11
2022-10-23T06:28:00.858Z,70.96
2022-10-23T06:30:27.391Z,71.17
2022-10-23T06:32:53.998Z,71.15
2022-10-23T06:35:20.394Z,71.18
2022-10-23T06:37:46.806Z,70.51
2022-10-23T06:40:13.221Z,71.03
2022-10-23T06:42:39.766Z,71.74
2022-10-23T06:45:07.346Z,72.45
2022-10-23T06:47:33.941Z,73.72
2022-10-23T06:50:00.470Z,73.66
2022-10-23T06:52:45.836Z,73.31
2022-10-23T06:55:13.639Z,73.54
2022-10-23T06:57:40.202Z,73.97
2022-10-23T07:00:07.519Z,73.84
2022-10-23T07:02:33.961Z,72.71
2022-10-23T07:05:00.422Z,72.25
2022-10-23T07:07:26.827Z,71.78
2022-10-23T07:09:53.235Z,72.95
2022-10-23T07:12:19.646Z,72.22
2022-10-23T07:14:46.085Z,72.25
2022-10-23T07:17:12.484Z,71.79
2022-10-23T07:19:38.895Z,71.66
2022-10-23T07:22:05.769Z,70.90
2022-10-23T07:24:36.927Z,70.41
2022-10-23T07:27:04.200Z,71.24
2022-10-23T07:29:30.793Z,70.71
2022-10-23T07:31:57.984Z,69.94
2022-10-23T07:34:24.652Z,69.56
2022-10-23T07:36:51.057Z,70.31
2022-10-23T07:39:17.450Z,69.44
2022-10-23T07:41:43.848Z,68.77
2022-10-23T07:44:10.236Z,67.96
2022-10-23T07:46:36.606Z,68.45
2022-10-23T07:49:03.037Z,68.95
2022-10-23T07:51:29.466Z,69.04
2022-10-23T07:53:55.873Z,67.71
2022-10-23T07:56:29.779Z,66.39
2022-10-23T07:58:56.288Z,66.52
2022-10-23T08:01:31.732Z,65.55
2022-10-23T08:03:58.563Z,65.91
2022-10-23T08:06:25.109Z,64.60
2022-10-23T08:08:51.895Z,64.29
2022-10-23T08:11:24.887Z,64.36
2022-10-23T08:13:52.807Z,65.48
2022-10-23T08:16:19.229Z,65.85
2022-10-23T08:18:45.794Z,67.17
2022-10-23T08:21:12.292Z,65.67
2022-10-23T08:23:38.777Z,66.84
2022-10-23T08:26:07.174Z,66.02
2022-10-23T08:28:34.006Z,64.61
2022-10-23T08:31:07.444Z,64.00
2022-10-23T08:33:33.847Z,62.57
2022-10-23T08:36:00.270Z,61.98
2022-10-23T08:38:26.680Z,61.05
2022-10-23T08:40:53.828Z,60.03
2022-10-23T08:43:41.991Z,59.62
2022-10-23T08:46:15.451Z,57.61
2022-10-23T08:48:51.912Z,57.06
2022-10-23T08:51:25.529Z,58.38
2022-10-23T08:54:14.342Z,57.49
2022-10-23T08:56:49.816Z,59.34
2022-10-23T08:59:29.096Z,59.01
2022-10-23T09:02:02.087Z,58.01
2022-10-23T09:04:28.902Z,59.56
2022-10-23T09:07:36.824Z,59.32
2022-10-23T09:10:09.009Z,56.95
2022-10-23T09:12:35.424Z,55.96
2022-10-23T09:15:28.330Z,55.86
2022-10-23T09:18:02.015Z,53.81
2022-10-23T09:20:36.120Z,54.34
2022-10-23T09:23:21.334Z,54.71
2022-10-23T09:25:50.884Z,54.53
2022-10-23T09:28:46.281Z,52.75
2022-10-23T09:31:13.166Z,49.75
2022-10-23T09:33:39.871Z,49.38
2022-10-23T09:36:13.798Z,48.92
2022-10-23T09:38:46.434Z,46.69
2022-10-23T09:41:12.788Z,49.59
2022-10-23T09:43:39.383Z,48.26
2022-10-23T09:46:07.070Z,50.33
2022-10-23T09:48:34.737Z,48.35
2022-10-23T09:51:04.899Z,51.04
2022-10-23T09:53:38.552Z,48.69
2022-10-23T09:56:24.771Z,47.47
2022-10-23T09:58:57.618Z,46.36
2022-10-23T10:01:45.236Z,48.18
2022-10-23T10:04:11.844Z,48.34
2022-10-23T10:06:38.276Z,47.85
2022-10-23T10:09:16.530Z,48.00
2022-10-23T10:11:49.556Z,46.31
2022-10-23T10:14:40.837Z,48.68
2022-10-23T10:17:43.596Z,47.85
2022-10-23T10:20:47.638Z,47.07
2022-10-23T10:24:02.112Z,47.21
2022-10-23T10:27:11.738Z,47.24
2022-10-23T10:30:03.237Z,49.50
2022-10-23T10:32:39.894Z,49.21
2022-10-23T10:35:43.149Z,48.95
2022-10-23T10:38:27.641Z,48.05
2022-10-23T10:41:12.748Z,48.25
2022-10-23T10:43:39.171Z,48.82
2022-10-23T10:46:40.945Z,50.39
2022-10-23T10:49:26.693Z,49.18
2022-10-23T10:52:22.123Z,48.92
2022-10-23T10:55:02.672Z,49.28
2022-10-23T10:57:43.091Z,47.90
2022-10-23T11:00:14.998Z,49.15
2022-10-23T11:03:01.207Z,49.30
2022-10-23T11:05:39.470Z,49.93
2022-10-23T11:08:14.671Z,50.31
2022-10-23T11:10:45.857Z,49.89
2022-10-23T11:13:22.545Z,49.96
2022-10-23T11:15:49.195Z,49.97
2022-10-23T11:18:25.789Z,50.83
2022-10-23T11:21:30.248Z,49.55
2022-10-23T11:24:15.105Z,48.93
2022-10-23T11:26:56.083Z,47.77
2022-10-23T11:29:42.769Z,46.41
2022-10-23T11:35:13.557Z,46.00
2022-10-23T11:37:40.233Z,47.12
2022-10-23T11:40:06.644Z,47.72
2022-10-23T11:42:46.140Z,47.19
2022-10-23T11:45:35.421Z,47.93
2022-10-23T11:48:23.194Z,49.14
2022-10-23T11:50:55.433Z,49.25
2022-10-23T11:53:24.892Z,48.92
2022-10-23T11:56:19.462Z,48.45
2022-10-23T11:58:49.680Z,48.88
2022-10-23T12:01:42.728Z,46.57
2022-10-23T12:04:15.350Z,45.69
2022-10-23T12:06:45.236Z,43.67
2022-10-23T12:09:44.618Z,45.41
2022-10-23T12:12:10.974Z,46.25
2022-10-23T12:14:40.568Z,45.89
2022-10-23T12:17:31.569Z,47.64
2022-10-23T12:20:21.351Z,48.20
2022-10-23T12:22:55.967Z,47.96
2022-10-23T12:25:39.052Z,50.82
2022-10-23T12:28:19.393Z,50.68
2022-10-23T12:31:00.520Z,50.66
2022-10-23T12:33:31.141Z,51.11
2022-10-23T12:36:16.960Z,52.86
2022-10-23T12:38:47.868Z,52.28
2022-10-23T12:41:34.634Z,53.26
2022-10-23T12:44:09.751Z,52.55
2022-10-23T12:46:40.237Z,52.82
2022-10-23T12:49:24.894Z,53.24
2022-10-23T12:52:00.438Z,53.83
2022-10-23T12:54:27.946Z,54.18
2022-10-23T12:56:54.888Z,53.11
2022-10-23T12:59:27.854Z,54.80
2022-10-23T13:01:55.128Z,54.26
2022-10-23T13:04:25.397Z,53.74
2022-10-23T13:06:52.996Z,54.22
2022-10-23T13:09:28.922Z,54.48
2022-10-23T13:11:56.238Z,55.10
2022-10-23T13:14:44.599Z,54.79
2022-10-23T13:17:12.027Z,55.02
2022-10-23T13:19:38.483Z,55.17
2022-10-23T13:22:18.723Z,55.41
2022-10-23T13:24:45.238Z,54.87
2022-10-23T13:27:26.760Z,54.30
2022-10-23T13:29:53.233Z,53.87
2022-10-23T13:32:30.226Z,55.71
2022-10-23T13:35:21.015Z,54.89
2022-10-23T13:37:48.479Z,54.60
2022-10-23T13:40:27.025Z,54.62
2022-10-23T13:42:55.823Z,54.19
2022-10-23T13:45:24.749Z,54.68
2022-10-23T13:47:51.243Z,55.63
2022-10-23T13:50:18.608Z,55.04
2022-10-23T13:52:45.361Z,56.08
2022-10-23T13:55:22.038Z,55.78
2022-10-23T13:57:48.444Z,55.68
2022-10-23T14:00:15.562Z,55.85
2022-10-23T14:02:42.287Z,56.71
2022-10-23T14:05:09.892Z,56.39
2022-10-23T14:07:36.342Z,57.27
2022-10-23T14:10:03.943Z,57.10
2022-10-23T14:12:30.384Z,57.16
2022-10-23T14:14:56.836Z,57.11
2022-10-23T14:17:23.263Z,57.35
2022-10-23T14:19:50.178Z,57.47
2022-10-23T14:22:16.658Z,57.01
2022-10-23T14:24:43.093Z,57.78
2022-10-23T14:27:09.474Z,57.33
2022-10-23T14:29:35.889Z,58.38
2022-10-23T14:32:02.386Z,57.95
2022-10-23T14:34:28.837Z,58.29
2022-10-23T14:37:08.018Z,58.56
2022-10-23T14:39:35.109Z,58.17
2022-10-23T14:42:01.640Z,58.57
2022-10-23T14:44:28.105Z,57.93
2022-10-23T14:46:54.622Z,58.35
2022-10-23T14:49:21.111Z,57.57
2022-10-23T14:51:47.559Z,58.27
2022-10-23T14:54:15.686Z,58.42
2022-10-23T14:56:42.168Z,58.35
2022-10-23T14:59:10.606Z,58.68
2022-10-23T15:01:45.625Z,58.31
2022-10-23T15:04:14.768Z,57.89
2022-10-23T15:06:41.941Z,58.45
2022-10-23T15:09:08.397Z,58.52
2022-10-23T15:11:34.844Z,58.94
2022-10-23T15:14:01.270Z,57.91
2022-10-23T15:16:27.788Z,58.59
2022-10-23T15:18:54.336Z,58.78
2022-10-23T15:21:20.804Z,58.80
2022-10-23T15:23:48.030Z,58.42
2022-10-23T15:26:21.077Z,59.09
2022-10-23T15:28:52.673Z,59.29
2022-10-23T15:31:43.252Z,58.92
2022-10-23T15:34:13.821Z,59.57
2022-10-23T15:36:40.788Z,59.38
2022-10-23T15:39:11.849Z,59.51
2022-10-23T15:41:40.360Z,59.89
2022-10-23T15:44:09.263Z,60.14
2022-10-23T15:46:36.170Z,60.68
2022-10-23T15:49:03.776Z,60.43
2022-10-23T15:51:30.554Z,60.41
2022-10-23T15:53:57.110Z,61.18
2022-10-23T15:56:24.887Z,60.86
2022-10-23T15:58:51.613Z,61.67
2022-10-23T16:01:18.410Z,60.96
2022-10-23T16:03:45.190Z,60.74
2022-10-23T16:06:14.102Z,60.76
2022-10-23T16:08:41.018Z,60.68
2022-10-23T16:11:38.058Z,60.71
2022-10-23T16:14:06.837Z,61.23
2022-10-23T16:16:34.303Z,61.18
2022-10-23T16:19:02.414Z,61.21
2022-10-23T16:21:31.514Z,60.56
2022-10-23T16:24:00.161Z,60.52
2022-10-23T16:26:28.662Z,60.58
2022-10-23T16:28:56.906Z,60.22
2022-10-23T16:31:24.630Z,60.67
2022-10-23T16:33:52.132Z,61.18
2022-10-23T16:36:19.411Z,61.39
2022-10-23T16:38:45.956Z,61.45
2022-10-23T16:41:12.391Z,61.67
2022-10-23T16:43:38.904Z,61.68
2022-10-23T16:46:08.294Z,63.01
2022-10-23T16:48:35.611Z,62.54
2022-10-23T16:51:06.822Z,63.87
2022-10-23T16:53:33.426Z,63.66
2022-10-23T16:56:00.218Z,64.46
2022-10-23T16:58:27.210Z,64.57
2022-10-23T17:01:21.622Z,64.57
2022-10-23T17:03:50.330Z,65.40
2022-10-23T17:06:21.299Z,65.21
2022-10-23T17:08:48.306Z,65.95
2022-10-23T17:11:19.431Z,65.35
2022-10-23T17:13:58.663Z,65.15
2022-10-23T17:16:30.694Z,65.59
2022-10-23T17:18:57.397Z,65.35
2022-10-23T17:21:24.488Z,65.97
2022-10-23T17:23:51.364Z,65.37
2022-10-23T17:26:21.596Z,64.95
2022-10-23T17:28:48.652Z,64.93
2022-10-23T17:31:26.983Z,64.78
2022-10-23T17:33:57.389Z,65.11
2022-10-23T17:36:26.187Z,65.54
2022-10-23T17:38:53.358Z,64.57
2022-10-23T17:41:22.027Z,64.29
2022-10-23T17:43:49.711Z,63.84
2022-10-23T17:46:17.337Z,63.81
2022-10-23T17:48:44.127Z,63.95
2022-10-23T17:51:22.538Z,64.67
2022-10-23T17:53:51.937Z,64.75
2022-10-23T17:56:22.404Z,65.55
2022-10-23T17:58:49.743Z,65.82
2022-10-23T18:01:18.838Z,65.52
2022-10-23T18:03:45.394Z,65.39
2022-10-23T18:06:18.321Z,65.99
2022-10-23T18:08:45.212Z,65.70
2022-10-23T18:11:18.504Z,65.68
2022-10-23T18:13:45.792Z,65.06
2022-10-23T18:16:13.340Z,64.97
2022-10-23T18:18:41.291Z,65.10
2022-10-23T18:21:09.172Z,64.19
2022-10-23T18:23:36.706Z,65.00
2022-10-23T18:26:04.754Z,65.33
2022-10-23T18:28:31.805Z,65.04
2022-10-23T18:30:58.290Z,65.35
2022-10-23T18:33:24.838Z,65.88
2022-10-23T18:35:51.258Z,65.49
2022-10-23T18:38:17.645Z,64.53
2022-10-23T18:40:44.255Z,64.18
2022-10-23T18:43:15.060Z,65.45
2022-10-23T18:45:46.352Z,65.51
2022-10-23T18:48:12.913Z,64.53
2022-10-23T18:50:39.326Z,65.06
2022-10-23T18:53:05.865Z,65.07
2022-10-23T18:58:03.780Z,64.67
2022-10-23T19:00:30.238Z,65.34
2022-10-23T19:02:56.777Z,64.55
2022-10-23T19:05:23.788Z,64.27
2022-10-23T19:07:50.394Z,64.18
2022-10-23T19:10:19.357Z,64.30
2022-10-23T19:12:46.160Z,64.38
2022-10-23T19:15:12.781Z,64.03
2022-10-23T19:17:39.236Z,64.06
2022-10-23T19:20:10.961Z,64.46
2022-10-23T19:22:40.966Z,65.26
2022-10-23T19:25:15.057Z,64.43
2022-10-23T19:27:44.454Z,63.75
2022-10-23T19:30:13.673Z,63.62
2022-10-23T19:32:41.423Z,63.99
2022-10-23T19:35:08.947Z,64.22
2022-10-23T19:37:36.035Z,63.51
2022-10-23T19:40:06.538Z,63.77
2022-10-23T19:42:40.582Z,63.53
2022-10-23T19:45:12.783Z,62.71
2022-10-23T19:47:39.725Z,62.73
2022-10-23T19:50:07.843Z,62.67
2022-10-23T19:52:34.662Z,63.25
2022-10-23T19:55:03.100Z,63.27
2022-10-23T19:57:33.616Z,63.57
2022-10-23T20:00:01.026Z,63.92
2022-10-23T20:02:28.142Z,63.81
2022-10-23T20:04:54.766Z,63.97
2022-10-23T20:07:21.238Z,64.43
2022-10-23T20:09:47.717Z,64.24
2022-10-23T20:12:14.274Z,63.64
2022-10-23T20:14:40.694Z,63.84
2022-10-23T20:17:07.142Z,64.29
2022-10-23T20:19:34.831Z,64.24
2022-10-23T20:22:01.449Z,64.32
2022-10-23T20:24:27.985Z,64.19
2022-10-23T20:26:56.000Z,64.05
2022-10-23T20:29:23.247Z,64.21
2022-10-23T20:31:49.701Z,64.16
2022-10-23T20:34:16.274Z,64.48
2022-10-23T20:36:46.755Z,63.66
2022-10-23T20:39:19.728Z,63.57
2022-10-23T20:41:47.270Z,64.03
2022-10-23T20:46:47.409Z,64.51
2022-10-23T20:49:14.454Z,64.23
2022-10-23T20:51:41.826Z,64.47
2022-10-23T20:54:08.373Z,63.63
2022-10-23T20:56:37.905Z,63.83
2022-10-23T20:59:07.640Z,64.00
2022-10-23T21:01:35.131Z,64.70
2022-10-23T21:04:03.583Z,64.56
2022-10-23T21:06:45.717Z,65.21
2022-10-23T21:09:19.823Z,65.00
2022-10-23T21:11:46.402Z,64.19
2022-10-23T21:14:13.040Z,64.60
2022-10-23T21:16:41.795Z,64.11
2022-10-23T21:19:10.282Z,63.96
2022-10-23T21:21:36.702Z,63.63
2022-10-23T21:24:08.185Z,64.17
2022-10-23T21:26:35.112Z,64.52
2022-10-23T21:29:17.468Z,65.21
2022-10-23T21:31:45.244Z,66.16
2022-10-23T21:37:10.900Z,66.56
2022-10-23T21:39:32.689Z,65.84
2022-10-23T21:41:59.093Z,65.88
2022-10-23T21:44:25.494Z,65.93
2022-10-23T21:46:51.973Z,65.68
2022-10-23T21:49:18.443Z,66.13
2022-10-23T21:51:44.975Z,65.87
2022-10-23T21:54:13.228Z,65.67
2022-10-23T21:56:43.321Z,65.95
2022-10-23T21:59:13.344Z,65.71
2022-10-23T22:01:41.400Z,66.92
2022-10-23T22:04:07.953Z,66.50
2022-10-23T22:06:34.378Z,65.97
2022-10-23T22:09:01.771Z,66.02
2022-10-23T22:11:28.615Z,66.33
2022-10-23T22:13:55.755Z,65.88
2022-10-23T22:16:22.684Z,66.31
2022-10-23T22:18:49.096Z,66.45
2022-10-23T22:21:18.511Z,67.02
2022-10-23T22:23:45.451Z,67.13
2022-10-23T22:26:30.756Z,67.70
2022-10-23T22:28:59.984Z,67.52
2022-10-23T22:31:29.726Z,69.07
2022-10-23T22:33:57.242Z,68.40
2022-10-23T22:36:24.433Z,68.79
2022-10-23T22:38:50.829Z,68.82
2022-10-23T22:41:17.903Z,68.39
2022-10-23T22:43:44.537Z,68.43
2022-10-23T22:46:14.195Z,69.15
2022-10-23T22:48:41.394Z,69.26
2022-10-23T22:51:10.866Z,69.63
2022-10-23T22:53:37.637Z,69.99
2022-10-23T22:56:09.226Z,71.05
2022-10-23T22:58:36.222Z,71.05
2022-10-23T23:01:06.837Z,71.24
2022-10-23T23:03:36.312Z,72.53
2022-10-23T23:06:04.916Z,73.56
2022-10-23T23:08:31.715Z,73.58
2022-10-23T23:10:58.936Z,73.95
2022-10-23T23:13:25.989Z,75.03
2022-10-23T23:15:53.025Z,75.53
2022-10-23T23:18:19.555Z,75.70
2022-10-23T23:20:46.485Z,75.56
2022-10-23T23:23:14.109Z,76.34
2022-10-23T23:25:47.873Z,76.38
2022-10-23T23:28:20.071Z,75.23
2022-10-23T23:30:47.074Z,75.29
2022-10-23T23:33:15.136Z,76.81
2022-10-23T23:35:44.022Z,77.24
2022-10-23T23:38:11.929Z,76.50
2022-10-23T23:40:39.131Z,76.54
2022-10-23T23:43:06.394Z,76.83
2022-10-23T23:45:32.949Z,75.95
2022-10-23T23:47:59.708Z,76.16
2022-10-23T23:50:27.865Z,75.78
2022-10-23T23:52:54.311Z,76.09
2022-10-23T23:55:20.806Z,76.71
2022-10-23T23:57:47.418Z,76.91
